Time;durP1;ratioP1;P1;durP2;ratioP2;P2;SDS_P1;SDS_P2;PMS_P1;PMS_P2;Temp;Humidity;BMP_temperature;BMP_pressure;BME280_temperature;BME280_humidity;BME280_pressure;Samples;Min_cycle;Max_cycle;Signal;HPM_P1;HPM_P2
2023/12/10 00:02:16;;;;;;;8.93;1.27;;;9.10;99.90;;;;;;5006435;28;20037;-70
2023/12/10 00:04:43;;;;;;;6.05;0.38;;;9.10;99.90;;;;;;5010090;28;20059;-70
2023/12/10 00:07:09;;;;;;;2.13;1.25;;;9.10;99.90;;;;;;5007979;28;20041;-70
2023/12/10 00:09:34;;;;;;;5.15;0.90;;;9.10;99.90;;;;;;5002101;28;20064;-70
2023/12/10 00:12:00;;;;;;;6.25;0.93;;;9.10;99.90;;;;;;5005862;28;20041;-70
2023/12/10 00:14:26;;;;;;;5.97;0.93;;;9.00;99.90;;;;;;5001021;28;20029;-70
2023/12/10 00:16:52;;;;;;;1.88;0.55;;;9.00;99.90;;;;;;5004871;28;20425;-70
2023/12/10 00:19:18;;;;;;;5.68;1.13;;;8.90;99.90;;;;;;5004744;28;20070;-70
2023/12/10 00:21:43;;;;;;;1.60;0.47;;;8.90;99.90;;;;;;5005906;28;20079;-71
2023/12/10 00:24:09;;;;;;;5.18;0.65;;;8.90;99.90;;;;;;5001386;28;20386;-70
2023/12/10 00:26:35;;;;;;;3.97;0.52;;;8.90;99.90;;;;;;5003333;28;20481;-71
2023/12/10 00:29:01;;;;;;;4.45;1.52;;;9.00;99.90;;;;;;5004440;28;20037;-70
2023/12/10 00:31:26;;;;;;;2.92;0.95;;;9.00;99.90;;;;;;4996106;28;20124;-70
2023/12/10 00:33:52;;;;;;;1.35;0.30;;;9.00;99.90;;;;;;5002756;28;20054;-70
2023/12/10 00:36:18;;;;;;;7.22;1.13;;;9.00;99.90;;;;;;5004949;28;20481;-71
2023/12/10 00:38:45;;;;;;;7.57;1.05;;;9.10;99.90;;;;;;5019665;28;20041;-70
2023/12/10 00:41:12;;;;;;;3.50;0.50;;;9.10;99.90;;;;;;4999290;28;20050;-71
2023/12/10 00:43:41;;;;;;;6.75;1.10;;;9.10;99.90;;;;;;4990706;28;20096;-71
2023/12/10 00:46:08;;;;;;;9.18;0.75;;;9.10;99.90;;;;;;5023877;28;20065;-70
2023/12/10 00:48:34;;;;;;;3.63;0.75;;;9.10;99.90;;;;;;5005137;28;20466;-70
2023/12/10 00:51:00;;;;;;;0.43;0.03;;;9.10;99.90;;;;;;5008719;28;20042;-70
2023/12/10 00:53:26;;;;;;;1.30;0.35;;;9.20;99.90;;;;;;4993832;28;20037;-70
2023/12/10 00:55:52;;;;;;;2.35;0.40;;;9.20;99.90;;;;;;5006341;28;20054;-70
2023/12/10 00:58:18;;;;;;;8.27;1.15;;;9.20;99.90;;;;;;5023267;28;20049;-69
2023/12/10 01:00:44;;;;;;;1.75;0.47;;;9.20;99.90;;;;;;4985284;28;20037;-69
2023/12/10 01:03:10;;;;;;;4.35;0.60;;;9.10;99.90;;;;;;4998389;28;20494;-70
2023/12/10 01:05:36;;;;;;;6.82;1.17;;;9.10;99.90;;;;;;4995100;28;20131;-70
2023/12/10 01:08:03;;;;;;;7.22;1.00;;;9.00;99.90;;;;;;5000665;28;20457;-70
2023/12/10 01:10:29;;;;;;;1.55;0.22;;;9.00;99.90;;;;;;5000930;28;20048;-70
2023/12/10 01:12:54;;;;;;;2.15;0.52;;;9.00;99.90;;;;;;5002717;28;20033;-71
2023/12/10 01:15:29;;;;;;;1.50;0.47;;;8.90;99.90;;;;;;5003516;28;20041;-70
2023/12/10 01:18:01;;;;;;;1.33;0.30;;;8.80;99.90;;;;;;5008085;28;20045;-70
2023/12/10 01:20:34;;;;;;;1.20;0.40;;;8.80;99.90;;;;;;5009802;28;20125;-69
2023/12/10 01:23:07;;;;;;;5.47;1.15;;;8.80;99.90;;;;;;5001277;28;20494;-70
2023/12/10 01:25:34;;;;;;;1.52;0.25;;;8.70;99.90;;;;;;5002857;28;20129;-71
2023/12/10 01:28:00;;;;;;;7.70;0.47;;;8.70;99.90;;;;;;5005721;28;20049;-70
2023/12/10 01:30:26;;;;;;;0.95;0.30;;;8.70;99.90;;;;;;5006927;28;20401;-69
2023/12/10 01:32:59;;;;;;;3.63;0.65;;;8.70;99.90;;;;;;5022015;28;20050;-68
2023/12/10 01:35:25;;;;;;;5.28;0.60;;;8.70;99.90;;;;;;5008646;28;20092;-70
2023/12/10 01:37:51;;;;;;;3.72;0.30;;;8.70;99.90;;;;;;5002541;28;20402;-69
2023/12/10 01:40:17;;;;;;;5.05;0.43;;;8.60;99.90;;;;;;4998464;28;20041;-69
2023/12/10 01:42:46;;;;;;;2.10;0.50;;;8.70;99.90;;;;;;5010244;28;20497;-70
2023/12/10 01:45:12;;;;;;;8.32;0.65;;;8.60;99.90;;;;;;5011137;28;20556;-70
2023/12/10 01:47:42;;;;;;;7.60;1.17;;;8.70;99.90;;;;;;4987859;28;20041;-70
2023/12/10 01:50:12;;;;;;;4.43;0.88;;;8.70;99.90;;;;;;5011335;28;20077;-69
2023/12/10 01:52:42;;;;;;;2.35;0.68;;;8.60;99.90;;;;;;5001946;28;20042;-69
2023/12/10 01:55:09;;;;;;;5.07;0.98;;;8.70;99.90;;;;;;5005095;28;20045;-68
2023/12/10 01:57:36;;;;;;;0.57;0.35;;;8.60;99.90;;;;;;4983621;28;20050;-70
2023/12/10 02:00:06;;;;;;;0.52;0.32;;;8.60;99.90;;;;;;4976156;28;20368;-68
2023/12/10 02:02:36;;;;;;;2.55;0.55;;;8.60;99.90;;;;;;4981410;28;20035;-69
2023/12/10 02:05:06;;;;;;;7.03;1.17;;;8.60;99.90;;;;;;4981925;28;20054;-69
2023/12/10 02:07:32;;;;;;;9.52;0.90;;;8.60;99.90;;;;;;4978997;28;20051;-69
2023/12/10 02:09:58;;;;;;;1.85;0.65;;;8.60;99.90;;;;;;4984984;28;20132;-69
2023/12/10 02:12:24;;;;;;;8.45;0.47;;;8.60;99.90;;;;;;4984037;28;20093;-70
2023/12/10 02:14:50;;;;;;;3.20;0.65;;;8.60;99.90;;;;;;4987906;28;20034;-69
2023/12/10 02:17:16;;;;;;;2.42;0.60;;;8.60;99.90;;;;;;4983009;28;20045;-70
2023/12/10 02:19:42;;;;;;;3.42;0.40;;;8.60;99.90;;;;;;4979197;28;20034;-70
2023/12/10 02:22:13;;;;;;;11.70;1.45;;;8.60;99.90;;;;;;4969706;28;20515;-70
2023/12/10 02:24:54;;;;;;;6.82;1.02;;;8.60;99.90;;;;;;4981599;28;20043;-69
2023/12/10 02:27:20;;;;;;;4.60;0.77;;;8.60;99.90;;;;;;4978920;28;20054;-70
2023/12/10 02:29:51;;;;;;;7.82;1.15;;;8.60;99.90;;;;;;4986015;28;20039;-69
2023/12/10 02:32:16;;;;;;;5.00;0.60;;;8.60;99.90;;;;;;4984936;28;20054;-70
2023/12/10 02:34:42;;;;;;;1.33;0.32;;;8.60;99.90;;;;;;4980743;28;20041;-70
2023/12/10 02:37:08;;;;;;;1.15;0.38;;;8.60;99.90;;;;;;4982447;28;20042;-70
2023/12/10 02:39:34;;;;;;;1.63;0.10;;;8.60;99.90;;;;;;4981713;28;20026;-70
2023/12/10 02:41:59;;;;;;;5.22;0.90;;;8.60;99.90;;;;;;4980494;28;20039;-70
2023/12/10 02:44:25;;;;;;;7.28;0.68;;;8.60;99.90;;;;;;4980801;28;20049;-70
2023/12/10 02:46:51;;;;;;;5.00;1.55;;;8.60;99.90;;;;;;4980376;28;20034;-71
2023/12/10 02:49:17;;;;;;;1.75;0.93;;;8.60;99.90;;;;;;4981982;28;20117;-70
2023/12/10 02:51:43;;;;;;;1.55;0.52;;;8.60;99.90;;;;;;4989642;28;20061;-70
2023/12/10 02:54:08;;;;;;;1.80;0.40;;;8.60;99.90;;;;;;4988214;28;20034;-70
2023/12/10 02:56:34;;;;;;;5.78;0.30;;;8.60;99.90;;;;;;4986060;28;20060;-71
2023/12/10 02:59:01;;;;;;;3.28;0.93;;;8.60;99.90;;;;;;5020003;28;20057;-71
2023/12/10 03:01:27;;;;;;;0.20;0.05;;;8.60;99.90;;;;;;5015172;28;20042;-71
2023/12/10 03:03:53;;;;;;;1.13;0.20;;;8.60;99.90;;;;;;5002775;28;20038;-71
2023/12/10 03:06:19;;;;;;;2.63;0.77;;;8.60;99.90;;;;;;4995611;28;20101;-71
2023/12/10 03:08:45;;;;;;;6.63;1.10;;;8.60;99.90;;;;;;5016058;28;20096;-71
2023/12/10 03:11:10;;;;;;;10.23;1.00;;;8.60;99.90;;;;;;4998380;28;20038;-72
2023/12/10 03:13:36;;;;;;;2.10;0.55;;;8.60;99.90;;;;;;5001779;28;20095;-72
2023/12/10 03:16:02;;;;;;;8.63;1.13;;;8.60;99.90;;;;;;4996802;28;20065;-72
2023/12/10 03:18:28;;;;;;;5.72;0.35;;;8.60;99.90;;;;;;5000168;28;20490;-71
2023/12/10 03:20:54;;;;;;;12.63;0.45;;;8.60;99.90;;;;;;5015936;28;20030;-73
2023/12/10 03:23:20;;;;;;;1.40;0.68;;;8.50;99.90;;;;;;4989532;28;20096;-72
2023/12/10 03:25:46;;;;;;;0.10;0.10;;;8.50;99.90;;;;;;4993461;28;20069;-73
2023/12/10 03:28:11;;;;;;;0.90;0.20;;;8.50;99.90;;;;;;5001617;28;20042;-72
2023/12/10 03:30:37;;;;;;;5.40;0.98;;;8.50;99.90;;;;;;4998642;28;20121;-73
2023/12/10 03:33:03;;;;;;;0.32;0.00;;;8.50;99.90;;;;;;5002879;28;20566;-72
2023/12/10 03:35:29;;;;;;;1.10;0.32;;;8.50;99.90;;;;;;4996503;28;20042;-71
2023/12/10 03:37:54;;;;;;;2.28;0.10;;;8.50;99.90;;;;;;4997272;28;20113;-72
2023/12/10 03:40:20;;;;;;;3.83;0.50;;;8.50;99.90;;;;;;5002724;28;20029;-71
2023/12/10 03:42:46;;;;;;;0.65;0.25;;;8.50;99.90;;;;;;4999536;28;20061;-71
2023/12/10 03:45:11;;;;;;;6.75;0.50;;;8.50;99.90;;;;;;4989393;28;20490;-71
2023/12/10 03:47:37;;;;;;;3.97;0.75;;;8.60;99.90;;;;;;4990134;28;20033;-71
2023/12/10 03:50:04;;;;;;;0.17;0.08;;;8.50;99.90;;;;;;5003666;28;20405;-72
2023/12/10 03:52:29;;;;;;;2.72;0.70;;;8.50;99.90;;;;;;4997396;28;20402;-71
2023/12/10 03:54:55;;;;;;;2.95;0.30;;;8.50;99.90;;;;;;4997052;28;20073;-71
2023/12/10 03:57:21;;;;;;;2.17;0.40;;;8.50;99.90;;;;;;4999564;28;20056;-70
2023/12/10 03:59:47;;;;;;;2.92;0.20;;;8.60;99.90;;;;;;5002364;28;20042;-70
2023/12/10 04:02:13;;;;;;;0.20;0.10;;;8.50;99.90;;;;;;4998984;28;20045;-71
2023/12/10 04:04:39;;;;;;;0.10;0.10;;;8.50;99.90;;;;;;4998002;28;20045;-70
2023/12/10 04:07:05;;;;;;;0.65;0.20;;;8.60;99.90;;;;;;5000704;28;20038;-72
2023/12/10 04:09:30;;;;;;;3.03;0.52;;;8.60;99.90;;;;;;4992908;28;20050;-72
2023/12/10 04:11:58;;;;;;;2.65;0.20;;;8.60;99.90;;;;;;4998325;28;20478;-71
2023/12/10 04:14:24;;;;;;;0.75;0.25;;;8.60;99.90;;;;;;4997207;28;20081;-72
2023/12/10 04:16:50;;;;;;;16.05;1.00;;;8.60;99.90;;;;;;5003466;28;20127;-71
2023/12/10 04:19:16;;;;;;;5.47;0.50;;;8.70;99.90;;;;;;5005718;28;20092;-70
2023/12/10 04:21:42;;;;;;;3.42;0.73;;;8.70;99.90;;;;;;4997149;28;20520;-71
2023/12/10 04:24:08;;;;;;;2.88;0.77;;;8.70;99.90;;;;;;5004257;28;20462;-71
2023/12/10 04:26:33;;;;;;;0.38;0.13;;;8.70;99.90;;;;;;5000992;28;20375;-72
2023/12/10 04:28:59;;;;;;;3.13;0.30;;;8.70;99.90;;;;;;4992473;28;20124;-73
2023/12/10 04:31:25;;;;;;;0.63;0.10;;;8.70;99.90;;;;;;5002919;28;20048;-76
2023/12/10 04:33:51;;;;;;;0.88;0.17;;;8.80;99.90;;;;;;4991156;28;20038;-75
2023/12/10 04:36:16;;;;;;;3.67;0.60;;;8.80;99.90;;;;;;4985760;28;20057;-75
2023/12/10 04:38:42;;;;;;;1.58;0.43;;;8.80;99.90;;;;;;5000873;28;20049;-74
2023/12/10 04:41:08;;;;;;;3.40;0.60;;;8.80;99.90;;;;;;5000729;28;20080;-75
2023/12/10 04:43:34;;;;;;;0.90;0.32;;;8.80;99.90;;;;;;5005928;28;20041;-76
2023/12/10 04:46:00;;;;;;;0.70;0.22;;;8.80;99.90;;;;;;4988669;28;20049;-77
2023/12/10 04:48:25;;;;;;;4.28;0.45;;;8.80;99.90;;;;;;4987719;28;20038;-78
2023/12/10 04:50:51;;;;;;;6.47;0.47;;;8.80;99.90;;;;;;4997207;28;20042;-72
2023/12/10 04:53:17;;;;;;;1.17;0.38;;;8.90;99.90;;;;;;4987394;28;20330;-76
2023/12/10 04:55:43;;;;;;;6.45;0.88;;;8.90;99.90;;;;;;5001117;28;20058;-76
2023/12/10 04:58:09;;;;;;;4.13;0.20;;;8.90;99.90;;;;;;5006151;28;20085;-75
2023/12/10 05:00:35;;;;;;;2.90;0.63;;;8.90;99.90;;;;;;5004285;28;20038;-73
2023/12/10 05:03:01;;;;;;;0.15;0.10;;;8.90;99.90;;;;;;5006831;28;20129;-76
2023/12/10 05:05:26;;;;;;;2.55;0.50;;;8.90;99.90;;;;;;4985270;28;20049;-76
2023/12/10 05:07:52;;;;;;;3.75;0.60;;;8.90;99.90;;;;;;5002266;28;20132;-77
2023/12/10 05:10:18;;;;;;;4.57;0.55;;;9.00;99.90;;;;;;4992548;28;20042;-77
2023/12/10 05:12:44;;;;;;;0.85;0.20;;;8.90;99.90;;;;;;5040355;28;20101;-76
2023/12/10 05:15:10;;;;;;;0.88;0.55;;;9.00;99.90;;;;;;5001091;28;20100;-76
2023/12/10 05:17:35;;;;;;;1.50;0.20;;;9.00;99.90;;;;;;5004258;28;20553;-75
2023/12/10 05:20:02;;;;;;;1.83;0.40;;;9.00;99.90;;;;;;5000476;28;20153;-75
2023/12/10 05:22:28;;;;;;;2.30;0.38;;;9.00;99.90;;;;;;4999537;28;20046;-75
2023/12/10 05:24:54;;;;;;;1.45;0.45;;;9.00;99.90;;;;;;5003343;28;20046;-74
2023/12/10 05:27:20;;;;;;;1.27;0.30;;;9.00;99.90;;;;;;4997004;28;20042;-74
2023/12/10 05:29:45;;;;;;;1.27;0.45;;;9.00;99.90;;;;;;4994084;28;20132;-75
2023/12/10 05:32:11;;;;;;;0.82;0.35;;;9.00;99.90;;;;;;4998918;28;20066;-72
2023/12/10 05:34:37;;;;;;;0.00;0.00;;;9.00;99.90;;;;;;4989336;28;20042;-73
2023/12/10 05:37:03;;;;;;;0.90;0.22;;;9.10;99.90;;;;;;5010331;28;20124;-73
2023/12/10 05:39:28;;;;;;;1.55;0.20;;;9.00;99.90;;;;;;5006595;28;20092;-74
2023/12/10 05:41:54;;;;;;;0.85;0.30;;;9.10;99.90;;;;;;5000606;28;20054;-74
2023/12/10 05:44:20;;;;;;;1.30;0.47;;;9.10;99.90;;;;;;5002354;28;20037;-73
2023/12/10 05:46:46;;;;;;;0.28;0.22;;;9.10;99.90;;;;;;5001221;28;20046;-72
2023/12/10 05:49:11;;;;;;;1.60;0.08;;;9.10;99.90;;;;;;4999937;28;20060;-72
2023/12/10 05:51:37;;;;;;;3.92;0.47;;;9.10;99.90;;;;;;4991646;28;20494;-72
2023/12/10 05:54:03;;;;;;;1.45;0.20;;;9.10;99.90;;;;;;5001544;28;20270;-72
2023/12/10 05:56:28;;;;;;;1.55;0.28;;;9.10;99.90;;;;;;4982845;28;20055;-71
2023/12/10 05:58:54;;;;;;;0.20;0.00;;;9.10;99.90;;;;;;5001656;28;20382;-71
2023/12/10 06:01:20;;;;;;;0.22;0.22;;;9.20;99.90;;;;;;4991972;28;20042;-71
2023/12/10 06:03:46;;;;;;;1.73;0.65;;;9.10;99.90;;;;;;4987369;28;20041;-72
2023/12/10 06:06:12;;;;;;;0.00;0.00;;;9.20;99.90;;;;;;4999833;28;20042;-70
2023/12/10 06:08:39;;;;;;;0.17;0.15;;;9.20;99.90;;;;;;4997586;28;20473;-71
2023/12/10 06:11:04;;;;;;;3.15;0.30;;;9.20;99.90;;;;;;4998371;28;20108;-71
2023/12/10 06:13:30;;;;;;;0.90;0.30;;;9.20;99.90;;;;;;4999355;28;20471;-71
2023/12/10 06:15:56;;;;;;;2.50;0.22;;;9.20;99.90;;;;;;5006496;28;20041;-71
2023/12/10 06:18:22;;;;;;;2.75;0.85;;;9.30;99.90;;;;;;4998865;28;20080;-71
2023/12/10 06:20:48;;;;;;;2.78;0.30;;;9.30;99.90;;;;;;5002053;28;20164;-70
2023/12/10 06:23:14;;;;;;;2.83;0.40;;;9.30;99.90;;;;;;5000370;28;20038;-69
2023/12/10 06:25:40;;;;;;;6.22;0.57;;;9.30;99.90;;;;;;5000015;28;20061;-70
2023/12/10 06:28:06;;;;;;;1.00;0.30;;;9.30;99.90;;;;;;4999868;28;20487;-71
2023/12/10 06:30:31;;;;;;;0.85;0.40;;;9.30;99.90;;;;;;4986918;28;20039;-72
2023/12/10 06:32:57;;;;;;;6.65;1.00;;;9.30;99.90;;;;;;5002814;28;20057;-73
2023/12/10 06:35:23;;;;;;;6.18;0.73;;;9.30;99.90;;;;;;4995832;28;20068;-74
2023/12/10 06:37:49;;;;;;;2.28;0.43;;;9.30;99.90;;;;;;4999195;28;20033;-72
2023/12/10 06:40:15;;;;;;;2.15;0.45;;;9.30;99.90;;;;;;5001414;28;20038;-72
2023/12/10 06:42:41;;;;;;;4.97;0.63;;;9.30;99.90;;;;;;5001707;28;20042;-72
2023/12/10 06:45:07;;;;;;;4.50;0.75;;;9.30;99.90;;;;;;4998921;28;20451;-72
2023/12/10 06:47:33;;;;;;;3.83;0.10;;;9.30;99.90;;;;;;5001247;28;20093;-72
2023/12/10 06:49:59;;;;;;;0.90;0.43;;;9.30;99.90;;;;;;4997542;28;20045;-72
2023/12/10 06:52:25;;;;;;;7.03;1.40;;;9.30;99.90;;;;;;4999347;28;20045;-72
2023/12/10 06:54:51;;;;;;;6.10;0.52;;;9.30;99.90;;;;;;4995188;28;20102;-73
2023/12/10 06:57:17;;;;;;;4.25;0.68;;;9.30;99.90;;;;;;5003738;28;20061;-72
2023/12/10 06:59:43;;;;;;;0.93;0.47;;;9.30;99.90;;;;;;4984077;28;20406;-72
2023/12/10 07:02:09;;;;;;;2.63;0.63;;;9.30;99.90;;;;;;4995208;28;20041;-72
2023/12/10 07:04:35;;;;;;;1.08;0.40;;;9.30;99.90;;;;;;4994567;28;20102;-72
2023/12/10 07:07:02;;;;;;;4.55;0.30;;;9.30;99.90;;;;;;4988390;28;20056;-72
2023/12/10 07:09:27;;;;;;;0.70;0.35;;;9.20;99.90;;;;;;4985436;28;20045;-73
2023/12/10 07:11:53;;;;;;;4.13;0.50;;;9.20;99.90;;;;;;5001738;28;20037;-74
2023/12/10 07:14:19;;;;;;;6.63;0.95;;;9.20;99.90;;;;;;4997540;28;20038;-73
2023/12/10 07:16:45;;;;;;;6.65;0.47;;;9.20;99.90;;;;;;5001771;28;20429;-73
2023/12/10 07:19:11;;;;;;;1.27;0.30;;;9.20;99.90;;;;;;4999112;28;20052;-72
2023/12/10 07:21:37;;;;;;;6.43;3.15;;;9.10;99.90;;;;;;5004808;28;20047;-71
2023/12/10 07:24:03;;;;;;;3.83;0.30;;;9.10;99.90;;;;;;4997948;28;20046;-73
2023/12/10 07:26:29;;;;;;;0.75;0.20;;;9.10;99.90;;;;;;5005769;28;20097;-72
2023/12/10 07:28:55;;;;;;;1.75;0.20;;;9.10;99.90;;;;;;4999180;28;20030;-72
2023/12/10 07:31:21;;;;;;;3.88;0.80;;;9.10;99.90;;;;;;5002008;28;20461;-71
2023/12/10 07:33:47;;;;;;;2.05;0.40;;;9.10;99.90;;;;;;4987012;28;20038;-72
2023/12/10 07:36:12;;;;;;;0.68;0.15;;;9.10;99.90;;;;;;5001994;28;20081;-71
2023/12/10 07:38:38;;;;;;;5.15;0.30;;;9.00;99.90;;;;;;5001652;28;20048;-71
2023/12/10 07:41:05;;;;;;;0.75;0.10;;;9.10;99.90;;;;;;5001416;28;20048;-72
2023/12/10 07:43:31;;;;;;;1.48;0.20;;;9.00;99.90;;;;;;5001174;28;20041;-71
2023/12/10 07:45:57;;;;;;;0.28;0.05;;;9.10;99.90;;;;;;4996474;28;20045;-71
2023/12/10 07:48:22;;;;;;;7.47;0.47;;;9.00;99.90;;;;;;5002767;28;20045;-71
2023/12/10 07:50:49;;;;;;;6.65;0.95;;;9.00;99.90;;;;;;4987750;28;20046;-70
2023/12/10 07:53:15;;;;;;;0.55;0.43;;;9.10;99.90;;;;;;5015933;28;20077;-72
2023/12/10 07:55:41;;;;;;;3.42;0.90;;;9.00;99.90;;;;;;4997589;28;20061;-72
2023/12/10 07:58:07;;;;;;;0.52;0.13;;;9.10;99.90;;;;;;4996210;28;20487;-70
2023/12/10 08:00:33;;;;;;;2.53;0.47;;;9.10;99.90;;;;;;5005818;28;20591;-71
2023/12/10 08:02:59;;;;;;;0.80;0.20;;;9.10;99.90;;;;;;5007387;28;20044;-71
2023/12/10 08:05:24;;;;;;;0.43;0.22;;;9.10;99.90;;;;;;5009430;28;20120;-72
2023/12/10 08:07:50;;;;;;;1.38;0.30;;;9.10;99.90;;;;;;5011116;28;20042;-71
2023/12/10 08:10:17;;;;;;;0.93;0.10;;;9.10;99.90;;;;;;5005290;28;20046;-72
2023/12/10 08:12:43;;;;;;;4.75;0.30;;;9.10;99.90;;;;;;5004619;28;20487;-72
2023/12/10 08:15:09;;;;;;;3.38;0.05;;;9.10;99.90;;;;;;4992262;28;20096;-71
2023/12/10 08:17:35;;;;;;;2.38;1.05;;;9.10;99.90;;;;;;5004843;28;20030;-71
2023/12/10 08:20:02;;;;;;;1.77;0.38;;;9.10;99.90;;;;;;4997461;28;20397;-71
2023/12/10 08:22:28;;;;;;;3.33;0.20;;;9.10;99.90;;;;;;4996035;28;20045;-71
2023/12/10 08:24:54;;;;;;;0.60;0.40;;;9.10;99.90;;;;;;4993626;28;20086;-71
2023/12/10 08:27:20;;;;;;;3.20;0.43;;;9.10;99.90;;;;;;5004703;28;20038;-72
2023/12/10 08:29:46;;;;;;;0.30;0.10;;;9.00;99.90;;;;;;5003422;28;20253;-72
2023/12/10 08:32:11;;;;;;;3.38;0.63;;;9.00;99.90;;;;;;4995405;28;20084;-72
2023/12/10 08:34:38;;;;;;;3.33;0.52;;;9.00;99.90;;;;;;5012237;28;20152;-72
2023/12/10 08:37:06;;;;;;;5.85;0.50;;;9.10;99.90;;;;;;5006405;28;20181;-72
2023/12/10 08:39:32;;;;;;;3.65;0.00;;;9.10;99.90;;;;;;5001254;28;20087;-72
2023/12/10 08:41:57;;;;;;;7.20;0.63;;;9.10;99.90;;;;;;4987263;28;20062;-72
2023/12/10 08:44:25;;;;;;;3.80;0.28;;;9.10;99.90;;;;;;5004626;28;20065;-72
2023/12/10 08:46:51;;;;;;;0.60;0.20;;;9.10;99.90;;;;;;5002412;28;20124;-72
2023/12/10 08:49:17;;;;;;;4.95;0.30;;;9.20;99.90;;;;;;5001540;28;20416;-71
2023/12/10 08:51:43;;;;;;;0.35;0.17;;;9.20;99.90;;;;;;5007698;28;20041;-72
2023/12/10 08:54:09;;;;;;;5.32;0.75;;;9.20;99.90;;;;;;5009350;28;20052;-71
2023/12/10 08:56:34;;;;;;;0.65;0.28;;;9.20;99.90;;;;;;5000617;28;20054;-71
2023/12/10 08:59:00;;;;;;;0.65;0.17;;;9.20;99.90;;;;;;5003725;28;20149;-71
2023/12/10 09:01:26;;;;;;;2.47;0.10;;;9.20;99.90;;;;;;5005261;28;21260;-71
2023/12/10 09:03:52;;;;;;;4.32;0.43;;;9.20;99.90;;;;;;5005288;28;20042;-71
2023/12/10 09:06:17;;;;;;;1.88;0.35;;;9.20;99.90;;;;;;5006346;28;20052;-72
2023/12/10 09:08:43;;;;;;;1.88;0.35;;;9.20;99.90;;;;;;4989081;28;20041;-71
2023/12/10 09:11:09;;;;;;;3.42;0.40;;;9.20;99.90;;;;;;4992288;28;20073;-71
2023/12/10 09:13:37;;;;;;;5.78;1.48;;;9.10;99.90;;;;;;5001432;28;20129;-72
2023/12/10 09:16:04;;;;;;;5.10;0.98;;;9.20;99.90;;;;;;5003855;28;20050;-71
2023/12/10 09:18:30;;;;;;;5.93;0.68;;;9.10;99.90;;;;;;5001260;28;20045;-71
2023/12/10 09:20:55;;;;;;;17.42;11.68;;;9.20;99.90;;;;;;5005493;28;20038;-71
2023/12/10 09:23:21;;;;;;;4.10;0.52;;;9.20;99.90;;;;;;4997514;28;20434;-71
2023/12/10 09:25:48;;;;;;;5.50;0.70;;;9.20;99.90;;;;;;5007779;28;20046;-70
2023/12/10 09:28:13;;;;;;;3.35;0.65;;;9.20;99.90;;;;;;5003142;28;20104;-70
2023/12/10 09:30:39;;;;;;;5.38;1.23;;;9.20;99.90;;;;;;5001472;28;20037;-71
2023/12/10 09:33:05;;;;;;;6.60;0.75;;;9.30;99.90;;;;;;4997656;28;20085;-71
2023/12/10 09:35:31;;;;;;;5.82;0.70;;;9.30;99.90;;;;;;4997907;28;20474;-71
2023/12/10 09:37:57;;;;;;;3.42;0.63;;;9.30;99.90;;;;;;5001552;28;20506;-71
2023/12/10 09:40:23;;;;;;;5.05;0.85;;;9.40;99.90;;;;;;5000890;28;20073;-71
2023/12/10 09:42:48;;;;;;;3.45;0.95;;;9.40;99.90;;;;;;5001540;28;20044;-70
2023/12/10 09:45:14;;;;;;;6.03;1.00;;;9.40;99.90;;;;;;4997821;28;20060;-70
2023/12/10 09:47:42;;;;;;;2.85;0.60;;;9.40;99.90;;;;;;5007753;28;20450;-70
2023/12/10 09:50:08;;;;;;;2.75;0.50;;;9.40;99.90;;;;;;4999431;28;20080;-70
2023/12/10 09:52:34;;;;;;;2.50;0.28;;;9.40;99.90;;;;;;5004501;28;20037;-70
2023/12/10 09:55:00;;;;;;;3.08;0.88;;;9.40;99.90;;;;;;5007967;28;20046;-70
2023/12/10 09:57:28;;;;;;;10.85;1.25;;;9.40;99.90;;;;;;5017453;28;20453;-71
2023/12/10 09:59:53;;;;;;;5.47;0.93;;;9.40;99.90;;;;;;5006967;28;20092;-71
2023/12/10 10:02:19;;;;;;;7.97;0.75;;;9.40;99.90;;;;;;5000289;28;20494;-70
2023/12/10 10:04:45;;;;;;;6.22;0.95;;;9.30;99.90;;;;;;5003205;28;20057;-70
2023/12/10 10:07:13;;;;;;;5.82;0.57;;;9.30;99.90;;;;;;5007012;28;20045;-70
2023/12/10 10:09:39;;;;;;;1.10;0.57;;;9.30;99.90;;;;;;5006087;28;20041;-70
2023/12/10 10:12:06;;;;;;;19.27;1.67;;;9.30;99.90;;;;;;5005813;28;20094;-71
2023/12/10 10:14:32;;;;;;;2.92;1.02;;;9.30;99.90;;;;;;5003138;28;20065;-71
2023/12/10 10:16:57;;;;;;;6.55;1.00;;;9.40;99.90;;;;;;4991486;28;20512;-71
2023/12/10 10:19:26;;;;;;;7.65;1.48;;;9.40;99.90;;;;;;4988008;28;20641;-73
2023/12/10 10:21:52;;;;;;;2.00;0.80;;;9.40;99.90;;;;;;5006985;28;20045;-72
2023/12/10 10:24:18;;;;;;;7.97;1.30;;;9.40;99.90;;;;;;5007478;28;20438;-73
2023/12/10 10:26:44;;;;;;;2.38;0.55;;;9.40;99.90;;;;;;5003534;28;20048;-72
2023/12/10 10:29:10;;;;;;;7.50;0.43;;;9.40;99.90;;;;;;5003109;28;20508;-72
2023/12/10 10:31:35;;;;;;;1.83;0.38;;;9.40;99.90;;;;;;5035782;28;20079;-72
2023/12/10 10:34:04;;;;;;;2.20;0.50;;;9.50;99.90;;;;;;5001370;28;20033;-72
2023/12/10 10:36:33;;;;;;;8.75;1.02;;;9.50;99.90;;;;;;5039715;28;20116;-72
2023/12/10 10:38:58;;;;;;;3.90;0.93;;;9.50;99.90;;;;;;5003609;28;20108;-72
2023/12/10 10:41:29;;;;;;;5.28;1.08;;;9.50;99.90;;;;;;5003712;28;20030;-72
2023/12/10 10:43:58;;;;;;;8.88;1.05;;;9.50;99.90;;;;;;5000406;28;20073;-72
2023/12/10 10:46:24;;;;;;;0.82;0.55;;;9.50;99.90;;;;;;5014588;28;20046;-72
2023/12/10 10:48:52;;;;;;;3.42;0.63;;;9.50;99.90;;;;;;4990190;28;20057;-69
2023/12/10 10:51:25;;;;;;;3.75;0.60;;;9.50;99.90;;;;;;5000632;28;20033;-72
2023/12/10 10:53:56;;;;;;;1.25;0.30;;;9.50;99.90;;;;;;5009394;28;20042;-72
2023/12/10 10:56:23;;;;;;;6.53;1.17;;;9.50;99.90;;;;;;5006734;28;20134;-72
2023/12/10 10:58:49;;;;;;;8.60;0.82;;;9.50;99.90;;;;;;5023319;28;20481;-72
2023/12/10 11:01:42;;;;;;;2.78;0.17;;;9.50;99.90;;;;;;4995724;28;20110;-71
2023/12/10 11:04:15;;;;;;;2.70;0.40;;;9.60;99.90;;;;;;5006892;28;20100;-72
2023/12/10 11:06:42;;;;;;;0.80;0.30;;;9.60;99.90;;;;;;5022147;28;20060;-72
2023/12/10 11:09:08;;;;;;;1.30;0.68;;;9.60;99.90;;;;;;5008967;28;20053;-71
2023/12/10 11:11:39;;;;;;;9.88;1.23;;;9.60;99.90;;;;;;4999730;28;20501;-72
2023/12/10 11:14:22;;;;;;;8.52;1.00;;;9.60;99.90;;;;;;5001220;28;20052;-72
2023/12/10 11:17:02;;;;;;;4.18;0.68;;;9.60;99.90;;;;;;4994178;28;20072;-72
2023/12/10 11:19:28;;;;;;;6.50;1.13;;;9.60;99.90;;;;;;5033128;28;20052;-72
2023/12/10 11:21:57;;;;;;;3.97;1.13;;;9.60;99.90;;;;;;5006681;28;20037;-72
2023/12/10 11:24:23;;;;;;;7.20;0.38;;;9.60;99.90;;;;;;5002196;28;20136;-72
2023/12/10 11:26:49;;;;;;;1.25;0.40;;;9.60;99.90;;;;;;5004817;28;20120;-72
2023/12/10 11:29:15;;;;;;;12.35;2.28;;;9.60;99.90;;;;;;5005649;28;20114;-72
2023/12/10 11:31:44;;;;;;;7.55;1.13;;;9.70;99.90;;;;;;5000969;28;20045;-71
2023/12/10 11:34:11;;;;;;;3.03;0.60;;;9.70;99.90;;;;;;5006418;28;20099;-72
2023/12/10 11:36:36;;;;;;;6.97;0.73;;;9.70;99.90;;;;;;5007668;28;20128;-72
2023/12/10 11:39:02;;;;;;;1.25;0.60;;;9.80;99.90;;;;;;5002416;28;20455;-72
2023/12/10 11:41:29;;;;;;;6.00;0.60;;;9.70;99.90;;;;;;5003811;28;20111;-72
2023/12/10 11:43:55;;;;;;;1.17;0.40;;;9.70;99.90;;;;;;5007773;28;20080;-71
2023/12/10 11:46:22;;;;;;;3.88;0.50;;;9.70;99.90;;;;;;5002646;28;20068;-71
2023/12/10 11:48:49;;;;;;;3.17;0.22;;;9.60;99.90;;;;;;5002340;28;20120;-71
2023/12/10 11:51:16;;;;;;;6.88;2.50;;;9.60;99.90;;;;;;4996472;28;20049;-72
2023/12/10 11:53:43;;;;;;;7.82;1.77;;;9.60;99.90;;;;;;5001267;28;20034;-72
2023/12/10 11:56:10;;;;;;;6.47;0.60;;;9.60;99.90;;;;;;4999056;28;20427;-72
2023/12/10 11:58:36;;;;;;;4.60;0.77;;;9.60;99.90;;;;;;5024561;28;20512;-72
2023/12/10 12:01:02;;;;;;;10.38;1.23;;;9.60;99.90;;;;;;5014597;28;20099;-72
2023/12/10 12:03:31;;;;;;;4.15;0.57;;;9.70;99.90;;;;;;5003524;28;20033;-71
2023/12/10 12:05:57;;;;;;;4.55;0.80;;;9.70;99.90;;;;;;5002419;28;20041;-71
2023/12/10 12:08:28;;;;;;;5.97;0.63;;;9.70;99.90;;;;;;5007997;28;20141;-71
2023/12/10 12:10:56;;;;;;;2.45;0.28;;;9.70;99.90;;;;;;5002338;28;20198;-71
2023/12/10 12:13:23;;;;;;;6.30;0.90;;;9.70;99.90;;;;;;5000509;28;20099;-71
2023/12/10 12:15:50;;;;;;;0.35;0.17;;;9.70;99.90;;;;;;5005329;28;20426;-71
2023/12/10 12:18:17;;;;;;;1.98;0.28;;;9.70;99.90;;;;;;4999343;28;20061;-71
2023/12/10 12:20:44;;;;;;;3.20;0.20;;;9.70;99.90;;;;;;5008269;28;20529;-72
2023/12/10 12:23:09;;;;;;;12.20;1.05;;;9.80;99.90;;;;;;4987147;28;20046;-72
2023/12/10 12:25:38;;;;;;;5.22;0.30;;;9.80;99.90;;;;;;5002224;28;20048;-71
2023/12/10 12:28:07;;;;;;;5.10;0.90;;;9.80;99.90;;;;;;5002206;28;20045;-71
2023/12/10 12:30:35;;;;;;;1.05;0.20;;;9.90;99.90;;;;;;5004217;28;20049;-71
2023/12/10 12:33:00;;;;;;;1.88;0.25;;;9.90;99.90;;;;;;4999695;28;20132;-71
2023/12/10 12:35:27;;;;;;;5.72;0.73;;;10.00;99.90;;;;;;5003433;28;20545;-71
2023/12/10 12:37:53;;;;;;;16.38;1.33;;;10.00;99.90;;;;;;4994487;28;21144;-71
2023/12/10 12:40:20;;;;;;;1.75;0.22;;;10.00;99.90;;;;;;4994806;28;20045;-71
2023/12/10 12:42:49;;;;;;;3.47;0.22;;;10.00;99.90;;;;;;4999359;28;20061;-72
2023/12/10 12:45:19;;;;;;;4.45;0.40;;;10.00;99.90;;;;;;5027327;28;20041;-72
2023/12/10 12:47:48;;;;;;;1.65;0.40;;;9.90;99.90;;;;;;4988777;28;20041;-71
2023/12/10 12:50:14;;;;;;;2.30;0.50;;;9.90;99.90;;;;;;5008734;28;20033;-72
2023/12/10 12:52:40;;;;;;;7.35;0.90;;;9.90;99.90;;;;;;5007882;28;20038;-72